Wetterdaten: aktuell Samstag, 24.09.2022 19:05
Datum Zeit Temp. A. Feuchte A. Luftdruck Regen Wind Richtung Richtung Taupunkt Windchill Windben
24.09.2022 19:05 9,3 C 88 % 1014,7 hPa 0,0 l/m 0,0 km/h (0 Bft) S-SW 208 7,4 C 9,3 C 0,0 km/h (0 Bft)
24.09.2022 19:00 9,6 C 87 % 1014,7 hPa 0,0 l/m 0,0 km/h (0 Bft) S-SW 208 7,5 C 9,6 C 0,0 km/h (0 Bft)
24.09.2022 18:55 9,8 C 87 % 1014,7 hPa 0,0 l/m 0,0 km/h (0 Bft) S-SW 208 7,7 C 9,8 C 0,0 km/h (0 Bft)
24.09.2022 18:50 9,9 C 86 % 1014,7 hPa 0,0 l/m 0,0 km/h (0 Bft) S-SW 208 7,7 C 9,9 C 0,0 km/h (0 Bft)
24.09.2022 18:45 10,1 C 86 % 1014,7 hPa 0,0 l/m 0,0 km/h (0 Bft) S-SW 208 7,9 C 10,1 C 1,6 km/h (1 Bft)
24.09.2022 18:40 10,2 C 85 % 1014,7 hPa 0,0 l/m 0,3 km/h (0 Bft) S-SW 208 7,8 C 10,2 C 1,6 km/h (1 Bft)
24.09.2022 18:35 10,4 C 84 % 1014,6 hPa 0,0 l/m 1,1 km/h (1 Bft) S-SW 207 7,8 C 10,4 C 6,4 km/h (2 Bft)
24.09.2022 18:30 10,6 C 84 % 1014,7 hPa 0,0 l/m 0,7 km/h (0 Bft) S 173 8,0 C 10,6 C 3,2 km/h (1 Bft)
24.09.2022 18:25 10,7 C 84 % 1014,6 hPa 0,0 l/m 1,3 km/h (1 Bft) SW 236 8,1 C 10,7 C 4,8 km/h (1 Bft)
24.09.2022 18:20 10,8 C 84 % 1014,6 hPa 0,0 l/m 1,5 km/h (1 Bft) W-SW 243 8,2 C 10,8 C 4,8 km/h (1 Bft)
24.09.2022 18:15 10,9 C 83 % 1014,5 hPa 0,0 l/m 1,5 km/h (1 Bft) W-SW 244 8,1 C 10,9 C 3,2 km/h (1 Bft)
24.09.2022 18:10 11,0 C 82 % 1014,6 hPa 0,0 l/m 1,1 km/h (1 Bft) S-SO 158 8,0 C 11,0 C 3,2 km/h (1 Bft)
24.09.2022 18:05 11,2 C 82 % 1014,4 hPa 0,0 l/m 1,5 km/h (1 Bft) W-SW 239 8,2 C 11,2 C 3,2 km/h (1 Bft)
24.09.2022 18:00 11,3 C 82 % 1014,5 hPa 0,0 l/m 2,1 km/h (1 Bft) S-SW 196 8,3 C 11,3 C 4,8 km/h (1 Bft)
24.09.2022 17:55 11,3 C 81 % 1014,5 hPa 0,0 l/m 2,3 km/h (1 Bft) W-SW 258 8,2 C 11,3 C 6,4 km/h (2 Bft)
24.09.2022 17:51 11,4 C 81 % 1014,5 hPa 0,0 l/m 2,0 km/h (1 Bft) S-SW 210 8,3 C 11,4 C 4,8 km/h (1 Bft)
24.09.2022 17:45 11,6 C 80 % 1014,5 hPa 0,0 l/m 2,2 km/h (1 Bft) S-SO 157 8,3 C 11,6 C 4,8 km/h (1 Bft)
24.09.2022 17:40 11,7 C 79 % 1014,5 hPa 0,0 l/m 1,9 km/h (1 Bft) W 265 8,2 C 11,7 C 8,0 km/h (2 Bft)
24.09.2022 17:35 11,9 C 78 % 1014,6 hPa 0,0 l/m 2,5 km/h (1 Bft) SW 234 8,2 C 11,9 C 8,0 km/h (2 Bft)
24.09.2022 17:30 12,2 C 77 % 1014,5 hPa 0,0 l/m 1,4 km/h (1 Bft) S-SO 157 8,3 C 12,2 C 3,2 km/h (1 Bft)
24.09.2022 17:25 12,3 C 77 % 1014,6 hPa 0,0 l/m 2,6 km/h (1 Bft) S 184 8,4 C 12,3 C 6,4 km/h (2 Bft)
24.09.2022 17:20 12,3 C 76 % 1014,5 hPa 0,0 l/m 2,5 km/h (1 Bft) SO 142 8,2 C 12,3 C 4,8 km/h (1 Bft)
24.09.2022 17:15 12,3 C 76 % 1014,6 hPa 0,0 l/m 2,2 km/h (1 Bft) SW 219 8,2 C 12,3 C 6,4 km/h (2 Bft)
24.09.2022 17:10 12,4 C 76 % 1014,6 hPa 0,0 l/m 1,2 km/h (1 Bft) S-SW 192 8,3 C 12,4 C 6,4 km/h (2 Bft)
24.09.2022 17:05 12,4 C 75 % 1014,5 hPa 0,0 l/m 2,4 km/h (1 Bft) SW 236 8,1 C 12,4 C 4,8 km/h (1 Bft)
24.09.2022 17:00 12,7 C 76 % 1014,5 hPa 0,0 l/m 1,8 km/h (1 Bft) SW 236 8,6 C 12,7 C 4,8 km/h (1 Bft)
24.09.2022 16:55 12,8 C 76 % 1014,5 hPa 0,0 l/m 1,3 km/h (1 Bft) S 180 8,7 C 12,8 C 4,8 km/h (1 Bft)
24.09.2022 16:50 12,8 C 75 % 1014,6 hPa 0,0 l/m 3,2 km/h (1 Bft) SW 224 8,5 C 12,8 C 11,3 km/h (2 Bft)
24.09.2022 16:45 12,8 C 76 % 1014,5 hPa 0,0 l/m 2,6 km/h (1 Bft) S-SW 192 8,7 C 12,8 C 9,7 km/h (2 Bft)
24.09.2022 16:40 12,6 C 76 % 1014,6 hPa 0,0 l/m 2,1 km/h (1 Bft) S-SW 202 8,5 C 12,6 C 8,0 km/h (2 Bft)
24.09.2022 16:35 12,6 C 76 % 1014,6 hPa 0,0 l/m 1,2 km/h (1 Bft) S 169 8,5 C 12,6 C 3,2 km/h (1 Bft)
24.09.2022 16:30 12,4 C 76 % 1014,6 hPa 0,0 l/m 1,7 km/h (1 Bft) SW 234 8,3 C 12,4 C 4,8 km/h (1 Bft)
24.09.2022 16:25 12,7 C 75 % 1014,6 hPa 0,0 l/m 2,9 km/h (1 Bft) S-SO 152 8,4 C 12,7 C 6,4 km/h (2 Bft)
24.09.2022 16:20 12,9 C 75 % 1014,5 hPa 0,0 l/m 2,8 km/h (1 Bft) S 178 8,6 C 12,9 C 11,3 km/h (2 Bft)
24.09.2022 16:15 13,1 C 73 % 1014,6 hPa 0,0 l/m 4,6 km/h (1 Bft) S-SO 150 8,4 C 13,1 C 11,3 km/h (2 Bft)
24.09.2022 16:10 12,9 C 75 % 1014,6 hPa 0,0 l/m 3,0 km/h (1 Bft) S-SW 194 8,6 C 12,9 C 6,4 km/h (2 Bft)
24.09.2022 16:05 13,0 C 73 % 1014,6 hPa 0,0 l/m 2,9 km/h (1 Bft) SO 134 8,3 C 13,0 C 8,0 km/h (2 Bft)
24.09.2022 16:00 13,2 C 71 % 1014,6 hPa 0,0 l/m 3,3 km/h (1 Bft) S-SW 205 8,1 C 13,2 C 11,3 km/h (2 Bft)
24.09.2022 15:55 13,6 C 69 % 1014,6 hPa 0,0 l/m 3,9 km/h (1 Bft) W-SW 238 8,0 C 13,6 C 9,7 km/h (2 Bft)
24.09.2022 15:50 13,7 C 66 % 1014,6 hPa 0,0 l/m 3,5 km/h (1 Bft) S-SW 203 7,5 C 13,7 C 12,9 km/h (3 Bft)
24.09.2022 15:45 13,4 C 64 % 1014,6 hPa 0,0 l/m 4,3 km/h (1 Bft) S-SW 207 6,7 C 13,4 C 11,3 km/h (2 Bft)
24.09.2022 15:40 13,3 C 67 % 1014,6 hPa 0,0 l/m 2,3 km/h (1 Bft) S-SW 192 7,3 C 13,3 C 8,0 km/h (2 Bft)
24.09.2022 15:35 13,2 C 66 % 1014,6 hPa 0,0 l/m 4,0 km/h (1 Bft) S-SW 205 7,0 C 13,2 C 8,0 km/h (2 Bft)
24.09.2022 15:30 13,4 C 65 % 1014,6 hPa 0,0 l/m 5,0 km/h (1 Bft) W-SW 240 7,0 C 13,4 C 12,9 km/h (3 Bft)
24.09.2022 15:25 13,9 C 63 % 1014,6 hPa 0,0 l/m 6,1 km/h (2 Bft) W 271 7,0 C 13,9 C 12,9 km/h (3 Bft)
24.09.2022 15:20 14,5 C 62 % 1014,6 hPa 0,0 l/m 5,2 km/h (1 Bft) W 269 7,3 C 14,5 C 11,3 km/h (2 Bft)
24.09.2022 15:15 14,6 C 64 % 1014,7 hPa 0,0 l/m 6,2 km/h (2 Bft) SW 223 7,9 C 14,6 C 14,5 km/h (3 Bft)
24.09.2022 15:10 14,7 C 64 % 1014,7 hPa 0,0 l/m 3,8 km/h (1 Bft) S-SW 211 8,0 C 14,7 C 9,7 km/h (2 Bft)
24.09.2022 15:05 14,6 C 61 % 1014,6 hPa 0,0 l/m 3,9 km/h (1 Bft) SW 216 7,2 C 14,6 C 8,0 km/h (2 Bft)
24.09.2022 15:00 14,3 C 67 % 1014,7 hPa 0,0 l/m 3,5 km/h (1 Bft) SW 231 8,3 C 14,3 C 9,7 km/h (2 Bft)
24.09.2022 14:55 13,9 C 65 % 1014,7 hPa 0,0 l/m 4,0 km/h (1 Bft) S-SW 204 7,4 C 13,9 C 9,7 km/h (2 Bft)
24.09.2022 14:50 13,8 C 65 % 1014,7 hPa 0,0 l/m 5,9 km/h (2 Bft) SW 224 7,3 C 13,8 C 14,5 km/h (3 Bft)
24.09.2022 14:45 14,4 C 63 % 1014,7 hPa 0,0 l/m 3,8 km/h (1 Bft) S 176 7,4 C 14,4 C 12,9 km/h (3 Bft)
24.09.2022 14:40 14,5 C 62 % 1014,8 hPa 0,0 l/m 4,3 km/h (1 Bft) SW 221 7,3 C 14,5 C 11,3 km/h (2 Bft)
24.09.2022 14:35 14,3 C 59 % 1014,8 hPa 0,0 l/m 5,8 km/h (2 Bft) S 185 6,4 C 14,3 C 14,5 km/h (3 Bft)
24.09.2022 14:30 14,3 C 60 % 1014,8 hPa 0,0 l/m 7,2 km/h (2 Bft) SW 216 6,6 C 13,8 C 14,5 km/h (3 Bft)
24.09.2022 14:25 14,3 C 61 % 1014,9 hPa 0,0 l/m 6,1 km/h (2 Bft) W-SW 242 6,9 C 14,3 C 16,1 km/h (3 Bft)
24.09.2022 14:20 14,2 C 64 % 1014,9 hPa 0,0 l/m 4,3 km/h (1 Bft) SW 235 7,5 C 14,2 C 12,9 km/h (3 Bft)
24.09.2022 14:15 14,4 C 61 % 1015,0 hPa 0,0 l/m 7,2 km/h (2 Bft) S-SW 194 7,0 C 13,9 C 14,5 km/h (3 Bft)
24.09.2022 14:10 14,3 C 66 % 1015,0 hPa 0,0 l/m 2,5 km/h (1 Bft) SW 221 8,0 C 14,3 C 6,4 km/h (2 Bft)
24.09.2022 14:05 14,0 C 62 % 1015,0 hPa 0,0 l/m 4,3 km/h (1 Bft) W-SW 242 6,8 C 14,0 C 11,3 km/h (2 Bft)
24.09.2022 14:00 13,4 C 64 % 1015,0 hPa 0,0 l/m 3,4 km/h (1 Bft) NW 306 6,7 C 13,4 C 6,4 km/h (2 Bft)
24.09.2022 13:55 13,3 C 62 % 1015,0 hPa 0,0 l/m 3,8 km/h (1 Bft) S-SW 210 6,2 C 13,3 C 8,0 km/h (2 Bft)
24.09.2022 13:50 14,0 C 62 % 1015,1 hPa 0,0 l/m 4,6 km/h (1 Bft) S 180 6,8 C 14,0 C 12,9 km/h (3 Bft)
24.09.2022 13:45 13,8 C 64 % 1015,0 hPa 0,0 l/m 5,0 km/h (1 Bft) SW 231 7,1 C 13,8 C 16,1 km/h (3 Bft)
24.09.2022 13:40 13,8 C 67 % 1015,1 hPa 0,0 l/m 5,2 km/h (1 Bft) SW 226 7,8 C 13,8 C 9,7 km/h (2 Bft)
24.09.2022 13:36 14,1 C 67 % 1015,1 hPa 0,0 l/m 4,8 km/h (1 Bft) S-SW 196 8,1 C 14,1 C 9,7 km/h (2 Bft)
24.09.2022 13:30 14,0 C 66 % 1015,0 hPa 0,0 l/m 5,6 km/h (1 Bft) S-SW 209 7,7 C 14,0 C 11,3 km/h (2 Bft)
24.09.2022 13:25 13,9 C 68 % 1015,1 hPa 0,0 l/m 6,1 km/h (2 Bft) S-SW 201 8,1 C 13,9 C 12,9 km/h (3 Bft)
24.09.2022 13:20 14,0 C 65 % 1015,1 hPa 0,0 l/m 8,4 km/h (2 Bft) SW 219 7,5 C 12,8 C 19,3 km/h (3 Bft)
24.09.2022 13:15 14,3 C 66 % 1015,1 hPa 0,0 l/m 5,9 km/h (2 Bft) SW 217 8,0 C 14,3 C 17,7 km/h (3 Bft)
24.09.2022 13:10 14,1 C 65 % 1015,1 hPa 0,0 l/m 5,9 km/h (2 Bft) S 188 7,6 C 14,1 C 12,9 km/h (3 Bft)
24.09.2022 13:06 14,1 C 67 % 1015,1 hPa 0,0 l/m 7,4 km/h (2 Bft) S-SW 209 8,1 C 13,5 C 16,1 km/h (3 Bft)
24.09.2022 13:00 13,7 C 69 % 1015,2 hPa 0,0 l/m 5,3 km/h (1 Bft) S 186 8,1 C 13,7 C 11,3 km/h (2 Bft)
24.09.2022 12:55 13,4 C 68 % 1015,4 hPa 0,0 l/m 8,1 km/h (2 Bft) W-NW 286 7,6 C 12,4 C 17,7 km/h (3 Bft)
24.09.2022 12:50 13,6 C 69 % 1015,3 hPa 0,0 l/m 5,1 km/h (1 Bft) W 275 8,0 C 13,6 C 11,3 km/h (2 Bft)
24.09.2022 12:45 13,7 C 69 % 1015,2 hPa 0,0 l/m 3,9 km/h (1 Bft) S 182 8,1 C 13,7 C 9,7 km/h (2 Bft)
24.09.2022 12:40 13,4 C 68 % 1015,2 hPa 0,0 l/m 6,4 km/h (2 Bft) S-SW 213 7,6 C 13,4 C 16,1 km/h (3 Bft)
24.09.2022 12:35 13,3 C 69 % 1015,3 hPa 0,0 l/m 5,8 km/h (2 Bft) S-SW 202 7,7 C 13,3 C 16,1 km/h (3 Bft)
24.09.2022 12:30 12,9 C 71 % 1015,3 hPa 0,0 l/m 5,1 km/h (1 Bft) S-SW 193 7,8 C 12,9 C 9,7 km/h (2 Bft)
24.09.2022 12:25 13,2 C 68 % 1015,3 hPa 0,0 l/m 4,8 km/h (1 Bft) SW 215 7,4 C 13,2 C 12,9 km/h (3 Bft)
24.09.2022 12:20 13,6 C 67 % 1015,3 hPa 0,0 l/m 5,0 km/h (1 Bft) S 184 7,6 C 13,6 C 14,5 km/h (3 Bft)
24.09.2022 12:15 13,7 C 66 % 1015,3 hPa 0,0 l/m 5,5 km/h (1 Bft) S-SO 155 7,5 C 13,7 C 12,9 km/h (3 Bft)
24.09.2022 12:10 14,0 C 67 % 1015,2 hPa 0,0 l/m 3,3 km/h (1 Bft) SO 143 8,0 C 14,0 C 9,7 km/h (2 Bft)
24.09.2022 12:05 13,5 C 70 % 1015,3 hPa 0,0 l/m 3,4 km/h (1 Bft) S-SW 211 8,1 C 13,5 C 8,0 km/h (2 Bft)
24.09.2022 12:00 13,2 C 71 % 1015,3 hPa 0,0 l/m 7,1 km/h (2 Bft) S-SW 209 8,1 C 12,8 C 14,5 km/h (3 Bft)
24.09.2022 11:55 12,8 C 70 % 1015,4 hPa 0,0 l/m 9,1 km/h (2 Bft) S 188 7,5 C 11,2 C 16,1 km/h (3 Bft)
24.09.2022 11:50 12,8 C 71 % 1015,4 hPa 0,0 l/m 8,3 km/h (2 Bft) W-SW 240 7,7 C 11,6 C 12,9 km/h (3 Bft)
24.09.2022 11:45 13,1 C 71 % 1015,3 hPa 0,0 l/m 7,0 km/h (2 Bft) SW 236 8,0 C 12,7 C 17,7 km/h (3 Bft)
24.09.2022 11:40 12,7 C 71 % 1015,3 hPa 0,0 l/m 5,4 km/h (1 Bft) W-SW 244 7,6 C 12,7 C 9,7 km/h (2 Bft)
24.09.2022 11:35 12,6 C 71 % 1015,4 hPa 0,0 l/m 7,6 km/h (2 Bft) SW 219 7,5 C 11,8 C 14,5 km/h (3 Bft)
24.09.2022 11:31 12,3 C 71 % 1015,4 hPa 0,0 l/m 7,9 km/h (2 Bft) S-SW 209 7,2 C 11,3 C 14,5 km/h (3 Bft)
24.09.2022 11:25 12,2 C 72 % 1015,4 hPa 0,0 l/m 6,2 km/h (2 Bft) S 186 7,3 C 12,2 C 12,9 km/h (3 Bft)
24.09.2022 11:20 12,0 C 72 % 1015,4 hPa 0,0 l/m 4,3 km/h (1 Bft) W-SW 245 7,1 C 12,0 C 9,7 km/h (2 Bft)
24.09.2022 11:15 11,7 C 72 % 1015,4 hPa 0,0 l/m 4,2 km/h (1 Bft) W 269 6,8 C 11,7 C 8,0 km/h (2 Bft)
24.09.2022 11:10 11,9 C 72 % 1015,3 hPa 0,0 l/m 4,6 km/h (1 Bft) SW 225 7,0 C 11,9 C 9,7 km/h (2 Bft)
24.09.2022 11:05 12,2 C 73 % 1015,3 hPa 0,0 l/m 4,4 km/h (1 Bft) SW 230 7,5 C 12,2 C 9,7 km/h (2 Bft)
24.09.2022 11:00 12,0 C 75 % 1015,4 hPa 0,0 l/m 4,9 km/h (1 Bft) SW 215 7,7 C 12,0 C 8,0 km/h (2 Bft)
24.09.2022 10:55 11,8 C 73 % 1015,4 hPa 0,0 l/m 4,6 km/h (1 Bft) S-SW 205 7,1 C 11,8 C 9,7 km/h (2 Bft)
24.09.2022 10:50 11,6 C 74 % 1015,5 hPa 0,0 l/m 3,8 km/h (1 Bft) S-SW 200 7,1 C 11,6 C 8,0 km/h (2 Bft)
_ Min-Zeit 00:05 14:35 18:05 - 20:00 - - 00:05 00:05 20:00
Minimum _ 1,8 C 59 % 1014,4 hPa - 0,0 km/h (0 Bft) - - 1,1 C 1,8 C 0,0 km/h (0 Bft)
_ Max-Zeit 15:10 07:30 20:05 20:00 11:55 - - 16:45 15:10 13:20
Maximum _ 14,7 C 97 % 1019,4 hPa 0,0 l/m 9,1 km/h
S (2 Bft)
- - 8,7 C 14,7 C 19,3 km/h
S-SW (3 Bft)
Durchschnitt _ 6,7 C 87 % 1016,6 hPa #0,0 l/m 1,6 km/h (1 Bft) S-SW - 4,5 C 6,7 C 4,0 km/h (1 Bft)